Desert Rock Airport
KDRA : now visible

Airfield :











YOU CAN JOIN US ON...

 
LOGIN :

Register | Disclaimer

   EN    FR    IT 

 









Legend :    VFR   Marginal VFR   IFR   Intensive IFR   Very Intensive IFR
Visi :
Ceiling :
>= 8 km
>= 3000ft
5 to 8 km
1000 to 3000 ft
1500m to 5 km
500 to 1000 ft
800 to 1500m
200 to 500 ft
< 800m
< 200 ft
Symbols :   Thunderstorms  Fog  Heavy snow  Heavy precipitations  Wind > 20 kt






- Airport Elevation : 3314 ft


KDRA - Desert Rock

CURRENT METAR :
  • 171753Z AUTO 02012KT 10SM CLR 19/M07 A3024 RMK AO2 SLP209 T01891072 10189 20111 50002

EXPIRED METARs :
  • 171653Z AUTO 03017KT 10SM CLR 16/M08 A3025 RMK AO2 SLP215 T01611078
  • 171553Z AUTO 04016KT 10SM CLR 14/M08 A3024 RMK AO2 SLP214 T01441083
  • 171453Z AUTO 04014KT 10SM CLR 12/M08 A3023 RMK AO2 SLP213 T01221083 53004

Expired Forecast.



MET'MAP, your aeronautical weather chart ! - Copyright ORBIFLY December 2007 - Disclaimer

ORBIFLY MET'MAP TEAM :

Programming & Development : Alexandra Zaïnal
Concept & Development : Baudouin d'Aumeries
Co-Development & Prog : Marc-Olivier Méhu
Technical & hardware support : Manuel Goepfert

Contact : metmap@orbifly.com




SOURCES & CREDITS :

   NOAA       Earth
Advisory